K3RTA-2 Weather Reports


Display with metric or nautical units.
time (UTC)temp
F
wind
direction
speed
MPH
gust
MPH
rain 1hr
in
rain 24hr
in
rain mn
in
humidity
%
barometer
mb
20240423211504 61 174 3.0 12.0 0.00 0.00 0.00 50 1017.2
20240423211003 62 153 4.0 8.0 0.00 0.00 0.00 48 1017.2
20240423210503 62 162 3.0 9.0 0.00 0.00 0.00 48 1017.2
20240423210004 62 163 3.0 6.0 0.00 0.00 0.00 48 1017.1
20240423205504 63 148 3.0 7.0 0.00 0.00 0.00 46 1017.1
20240423205004 62 180 2.0 5.0 0.00 0.00 0.00 46 1017.1
20240423204504 62 161 3.0 8.0 0.00 0.00 0.00 46 1017.1
20240423204004 63 143 3.0 12.0 0.00 0.00 0.00 49 1017.1
20240423203504 62 158 3.0 10.0 0.00 0.00 0.00 49 1017.2
20240423203004 63 135 5.0 9.0 0.00 0.00 0.00 47 1017.2
20240423202004 63 160 3.0 12.0 0.00 0.00 0.00 49 1017.5
20240423201504 63 143 6.0 13.0 0.00 0.00 0.00 48 1017.6
20240423200504 63 137 7.0 16.0 0.00 0.00 0.00 48 1017.6
20240423200004 63 144 8.0 15.0 0.00 0.00 0.00 47 1017.5
20240423195504 63 121 5.0 18.0 0.00 0.00 0.00 46 1017.6
20240423195004 63 163 4.0 13.0 0.00 0.00 0.00 47 1017.7
20240423194506 64 140 5.0 14.0 0.00 0.00 0.00 46 1017.8
20240423193504 65 152 2.0 12.0 0.00 0.00 0.00 47 1018.2
20240423193003 64 137 3.0 10.0 0.00 0.00 0.00 47 1018.3
20240423192504 64 146 3.0 9.0 0.00 0.00 0.00 48 1018.3
20240423192004 63 117 6.0 12.0 0.00 0.00 0.00 46 1018.3
20240423191503 64 153 3.0 8.0 0.00 0.00 0.00 48 1018.4
20240423190504 63 131 6.0 15.0 0.00 0.00 0.00 48 1018.5
20240423185504 64 119 7.0 16.0 0.00 0.00 0.00 48 1018.4
20240423185005 64 126 5.0 13.0 0.00 0.00 0.00 48 1018.4
20240423184504 64 142 8.0 16.0 0.00 0.00 0.00 47 1018.4
20240423184003 65 153 3.0 9.0 0.00 0.00 0.00 49 1018.5
20240423183504 65 132 4.0 9.0 0.00 0.00 0.00 48 1018.5
20240423183003 65 158 5.0 9.0 0.00 0.00 0.00 49 1018.6
20240423182004 64 111 4.0 12.0 0.00 0.00 0.00 48 1018.7
20240423181504 64 143 6.0 14.0 0.00 0.00 0.00 47 1018.8
20240423180503 66 140 3.0 9.0 0.00 0.00 0.00 46 1018.9
20240423180004 65 143 4.0 12.0 0.00 0.00 0.00 47 1018.9
20240423175004 65 124 5.0 12.0 0.00 0.00 0.00 48 1019.0
20240423174503 66 134 4.0 8.0 0.00 0.00 0.00 49 1019.0
20240423173504 66 106 3.0 12.0 0.00 0.00 0.00 48 1019.0
20240423173004 66 183 3.0 9.0 0.00 0.00 0.00 48 1019.0
20240423172503 66 169 5.0 12.0 0.00 0.00 0.00 46 1019.0
20240423172004 67 113 2.0 5.0 0.00 0.00 0.00 48 1019.1
20240423171503 67 119 2.0 6.0 0.00 0.00 0.00 44 1019.1
20240423170504 67 118 2.0 3.0 0.00 0.00 0.00 37 1019.2
20240423165504 67 147 2.0 6.0 0.00 0.00 0.00 37 1019.5
20240423165004 67 119 1.0 3.0 0.00 0.00 0.00 37 1019.7
20240423164005 67 158 1.0 3.0 0.00 0.00 0.00 38 1019.9
20240423163503 66 75 1.0 3.0 0.00 0.00 0.00 39 1020.0
20240423163005 66 150 1.0 3.0 0.00 0.00 0.00 40 1020.2
20240423162503 65 145 2.0 5.0 0.00 0.00 0.00 37 1020.3
20240423162004 65 153 3.0 7.0 0.00 0.00 0.00 38 1020.4
20240423161504 65 178 2.0 3.0 0.00 0.00 0.00 39 1020.5
20240423161005 65 234 1.0 5.0 0.00 0.00 0.00 37 1020.7
20240423160505 65 119 2.0 3.0 0.00 0.00 0.00 38 1020.9
20240423160004 65 321 2.0 3.0 0.00 0.00 0.00 39 1020.9
20240423155005 65 290 1.0 5.0 0.00 0.00 0.00 38 1021.1
20240423154004 65 184 2.0 5.0 0.00 0.00 0.00 45 1021.3
20240423153504 64 186 2.0 5.0 0.00 0.00 0.00 44 1021.3
20240423153004 63 319 1.0 3.0 0.00 0.00 0.00 43 1021.4
20240423152504 63 15 2.0 5.0 0.00 0.00 0.00 46 1021.4
20240423152005 63 140 2.0 6.0 0.00 0.00 0.00 51 1021.4
20240423151503 63 161 2.0 3.0 0.00 0.00 0.00 49 1021.5
20240423150504 63 153 2.0 5.0 0.00 0.00 0.00 51 1021.6
20240423150004 63 129 2.0 5.0 0.00 0.00 0.00 52 1021.7
20240423145504 63 105 1.0 3.0 0.00 0.00 0.00 50 1021.8
20240423145005 62 245 0.0 3.0 0.00 0.00 0.00 53 1021.9
20240423144504 62 126 0.0 2.0 0.00 0.00 0.00 53 1021.9
20240423144005 61 180 2.0 5.0 0.00 0.00 0.00 56 1022.0
20240423143504 61 156 3.0 5.0 0.00 0.00 0.00 55 1022.1
20240423143004 61 207 3.0 6.0 0.00 0.00 0.00 54 1022.2
20240423142504 60 65 0.0 3.0 0.00 0.00 0.00 56 1022.2
20240423142004 60 116 2.0 5.0 0.00 0.00 0.00 57 1022.2
20240423141504 59 132 2.0 3.0 0.00 0.00 0.00 59 1022.3
20240423141004 59 131 3.0 8.0 0.00 0.00 0.00 58 1022.3
20240423140503 59 128 3.0 5.0 0.00 0.00 0.00 57 1022.4
20240423140003 59 106 2.0 5.0 0.00 0.00 0.00 58 1022.4
20240423135503 58 159 3.0 6.0 0.00 0.00 0.00 57 1022.5
20240423135004 59 125 2.0 6.0 0.00 0.00 0.00 57 1022.4
20240423134503 58 76 1.0 3.0 0.00 0.00 0.00 59 1022.5
20240423134005 58 195 0.0 3.0 0.00 0.00 0.00 61 1022.6
20240423133503 57 146 2.0 5.0 0.00 0.00 0.00 62 1022.6
20240423133004 57 133 2.0 5.0 0.00 0.00 0.00 62 1022.6
20240423132503 57 141 0.0 3.0 0.00 0.00 0.00 61 1022.6
20240423132004 56 191 0.0 2.0 0.00 0.00 0.00 62 1022.7
20240423131505 56 152 2.0 6.0 0.00 0.00 0.00 62 1022.7
20240423131004 56 155 2.0 3.0 0.00 0.00 0.00 62 1022.7
20240423130503 56 143 3.0 6.0 0.00 0.00 0.00 60 1022.8
20240423130004 56 205 1.0 3.0 0.00 0.00 0.00 62 1022.7
20240423125503 55 182 1.0 3.0 0.00 0.00 0.00 63 1022.6
20240423125004 54 159 1.0 6.0 0.00 0.00 0.00 64 1022.6
20240423124504 54 147 1.0 5.0 0.00 0.00 0.00 63 1022.6
20240423124004 54 162 1.0 5.0 0.00 0.00 0.00 64 1022.6
20240423123504 54 142 2.0 5.0 0.00 0.00 0.00 62 1022.6
20240423122004 52 225 0.0 3.0 0.00 0.00 0.00 66 1022.6
20240423121503 51 226 0.0 1.0 0.00 0.00 0.00 69 1022.6
20240423121004 50 175 1.0 3.0 0.00 0.00 0.00 71 1022.6
20240423120005 49 163 0.0 2.0 0.00 0.00 0.00 74 1022.5
20240423115005 47 199 0.0 2.0 0.00 0.00 0.00 80 1022.5
20240423114503 46 153 0.0 0.0 0.00 0.00 0.00 83 1022.4
20240423114004 45 195 0.0 0.0 0.00 0.00 0.00 84 1022.3
20240423113503 43 175 0.0 0.0 0.00 0.00 0.00 86 1022.3
20240423113004 42 191 0.0 0.0 0.00 0.00 0.00 89 1022.2
20240423112504 41 184 0.0 0.0 0.00 0.00 0.00 90 1022.1
20240423112003 39 196 0.0 0.0 0.00 0.00 0.00 92 1022.0
20240423111504 38 199 0.0 1.0 0.00 0.00 0.00 93 1022.1
20240423111004 38 205 0.0 0.0 0.00 0.00 0.00 94 1022.1
20240423110504 37 205 0.0 0.0 0.00 0.00 0.00 94 1022.0
20240423110004 37 205 0.0 0.0 0.00 0.00 0.00 94 1022.1
20240423105503 36 205 0.0 0.0 0.00 0.00 0.00 94 1022.0
20240423105004 36 205 0.0 0.0 0.00 0.00 0.00 94 1022.0
20240423104004 36 206 0.0 0.0 0.00 0.00 0.00 94 1021.9
20240423103504 36 205 0.0 0.0 0.00 0.00 0.00 94 1021.9
20240423103005 36 205 0.0 0.0 0.00 0.00 0.00 94 1021.9
20240423102004 35 205 0.0 0.0 0.00 0.00 0.00 94 1021.8
20240423101005 35 205 0.0 0.0 0.00 0.00 0.00 94 1021.6
20240423100005 36 205 0.0 0.0 0.00 0.00 0.00 94 1021.6
20240423095504 36 205 0.0 0.0 0.00 0.00 0.00 94 1021.5
20240423095003 36 205 0.0 0.0 0.00 0.00 0.00 94 1021.5
20240423094504 36 205 0.0 0.0 0.00 0.00 0.00 94 1021.5
20240423094004 36 205 0.0 0.0 0.00 0.00 0.00 93 1021.4
20240423093503 36 205 0.0 0.0 0.00 0.00 0.00 93 1021.5
20240423093004 36 205 0.0 0.0 0.00 0.00 0.00 93 1021.5
20240423092003 36 205 0.0 0.0 0.00 0.00 0.00 93 1021.3
20240423091004 36 205 0.0 0.0 0.00 0.00 0.00 93 1021.2
20240423090505 36 205 0.0 0.0 0.00 0.00 0.00 92 1021.2
20240423090004 36 205 0.0 0.0 0.00 0.00 0.00 92 1021.1
20240423085505 36 205 0.0 0.0 0.00 0.00 0.00 92 1021.1
20240423085004 37 205 0.0 0.0 0.00 0.00 0.00 92 1021.0
20240423084505 37 205 0.0 0.0 0.00 0.00 0.00 92 1021.0
20240423084003 37 205 0.0 0.0 0.00 0.00 0.00 92 1020.9
20240423082503 37 206 0.0 0.0 0.00 0.00 0.00 91 1020.7
20240423082004 37 205 0.0 0.0 0.00 0.00 0.00 90 1020.7
20240423081504 38 205 0.0 0.0 0.00 0.00 0.00 90 1020.7
20240423081004 38 205 0.0 0.0 0.00 0.00 0.00 90 1020.7
20240423080504 38 205 0.0 0.0 0.00 0.00 0.00 90 1020.7
20240423080003 38 205 0.0 0.0 0.00 0.00 0.00 90 1020.8
20240423075504 38 206 0.0 0.0 0.00 0.00 0.00 89 1020.8
20240423075004 39 205 0.0 0.0 0.00 0.00 0.00 89 1020.8
20240423074503 39 205 0.0 0.0 0.00 0.00 0.00 89 1020.8
20240423074004 39 205 0.0 0.0 0.00 0.00 0.00 89 1020.8
20240423073504 39 205 0.0 0.0 0.00 0.00 0.00 89 1020.8
20240423072504 39 206 0.0 0.0 0.00 0.00 0.00 89 1020.7
20240423071504 39 165 0.0 0.0 0.00 0.00 0.00 89 1020.7
20240423071004 39 165 0.0 0.0 0.00 0.00 0.00 89 1020.7
20240423070504 39 165 0.0 0.0 0.00 0.00 0.00 89 1020.7
20240423065004 38 167 0.0 3.0 0.00 0.00 0.00 90 1020.7
20240423064003 37 174 0.0 1.0 0.00 0.00 0.00 92 1020.7
20240423063504 37 181 0.0 0.0 0.00 0.00 0.00 91 1020.7
20240423063003 37 178 0.0 0.0 0.00 0.00 0.00 91 1020.6
20240423062005 37 178 0.0 0.0 0.00 0.00 0.00 89 1020.5
20240423061503 37 178 0.0 0.0 0.00 0.00 0.00 89 1020.6
20240423061004 37 178 0.0 0.0 0.00 0.00 0.00 89 1020.6
20240423060503 37 178 0.0 0.0 0.00 0.00 0.00 88 1020.6
20240423060004 38 178 0.0 0.0 0.00 0.00 0.00 88 1020.6
20240423055005 38 178 0.0 0.0 0.00 0.00 0.00 88 1020.7
20240423054504 38 178 0.0 0.0 0.00 0.00 0.00 87 1020.7
20240423054003 39 178 0.0 0.0 0.00 0.00 0.00 86 1020.7
20240423053504 39 178 0.0 0.0 0.00 0.00 0.00 85 1020.6
20240423053005 39 178 0.0 0.0 0.00 0.00 0.00 85 1020.6
20240423052504 40 178 0.0 0.0 0.00 0.00 0.00 85 1020.6
20240423051504 40 178 0.0 0.0 0.00 0.00 0.00 83 1020.8
20240423051005 41 178 0.0 0.0 0.00 0.00 0.00 83 1020.8
20240423050504 41 178 0.0 0.0 0.00 0.00 0.00 83 1020.8
20240423050004 41 178 0.0 0.0 0.00 0.00 0.00 83 1020.8
20240423045504 41 178 0.0 0.0 0.00 0.00 0.00 82 1020.9
20240423044504 41 179 0.0 1.0 0.00 0.00 0.00 82 1020.9
20240423044005 41 174 0.0 0.0 0.00 0.00 0.00 81 1021.0
20240423043504 41 174 0.0 1.0 0.00 0.00 0.00 81 1021.0
20240423043004 42 174 0.0 1.0 0.00 0.00 0.00 80 1020.9
20240423042504 42 190 0.0 1.0 0.00 0.00 0.00 80 1020.9
20240423041505 42 154 0.0 0.0 0.00 0.00 0.00 80 1020.8
20240423041004 42 162 0.0 0.0 0.00 0.00 0.00 80 1020.8
20240423040503 42 162 0.0 1.0 0.00 0.00 0.00 79 1020.7
20240423040004 42 187 0.0 1.0 0.00 0.00 0.00 79 1020.8
20240423035504 42 197 0.0 2.0 0.00 0.00 0.00 79 1020.7
20240423035005 42 212 0.0 0.0 0.00 0.00 0.00 79 1020.7
20240423034504 42 195 0.0 0.0 0.00 0.00 0.00 79 1020.6
20240423033505 43 196 0.0 1.0 0.00 0.00 0.00 79 1020.4
20240423033004 43 198 0.0 1.0 0.00 0.00 0.00 79 1020.4
20240423032504 43 161 0.0 0.0 0.00 0.00 0.00 79 1020.4
20240423032003 43 162 0.0 1.0 0.00 0.00 0.00 79 1020.4
20240423031504 43 164 0.0 1.0 0.00 0.00 0.00 79 1020.3
20240423031004 43 150 0.0 0.0 0.00 0.00 0.00 79 1020.3
20240423030004 43 150 0.0 0.0 0.00 0.00 0.00 78 1020.3
20240423025504 43 161 0.0 1.0 0.00 0.00 0.00 78 1020.2
20240423025004 43 150 0.0 1.0 0.00 0.00 0.00 77 1020.3
20240423024503 43 146 0.0 1.0 0.00 0.00 0.00 77 1020.2
20240423023505 43 160 0.0 1.0 0.00 0.00 0.00 78 1020.3
20240423023004 43 134 0.0 0.0 0.00 0.00 0.00 78 1020.3
20240423022504 43 134 0.0 0.0 0.00 0.00 0.00 78 1020.3
20240423022005 43 134 0.0 1.0 0.00 0.00 0.00 78 1020.4
20240423021504 43 134 0.0 0.0 0.00 0.00 0.00 77 1020.3
20240423021003 43 134 0.0 0.0 0.00 0.00 0.00 77 1020.2
20240423020504 44 134 0.0 0.0 0.00 0.00 0.00 75 1020.2
20240423020003 44 134 0.0 0.0 0.00 0.00 0.00 75 1020.1
20240423015504 45 128 0.0 1.0 0.00 0.00 0.00 74 1020.0
20240423015004 45 128 0.0 0.0 0.00 0.00 0.00 73 1019.9
20240423014504 45 128 0.0 0.0 0.00 0.00 0.00 72 1019.9
20240423014006 46 128 0.0 0.0 0.00 0.00 0.00 71 1019.9
20240423013504 46 128 0.0 1.0 0.00 0.00 0.00 70 1019.8
20240423013004 46 105 0.0 0.0 0.00 0.00 0.00 70 1019.7
20240423012504 46 105 0.0 2.0 0.00 0.00 0.00 69 1019.7
20240423012004 47 155 0.0 0.0 0.00 0.00 0.00 68 1019.6
20240423011004 47 155 0.0 1.0 0.00 0.00 0.00 67 1019.3
20240423010504 47 144 0.0 1.0 0.00 0.00 0.00 67 1019.3
20240423010003 47 207 0.0 2.0 0.00 0.00 0.00 68 1019.2
20240423005504 48 199 0.0 1.0 0.00 0.00 0.00 68 1019.2
20240423005004 48 171 0.0 0.0 0.00 0.00 0.00 67 1019.1
20240423004504 48 154 0.0 0.0 0.00 0.00 0.00 66 1019.1
20240423004003 48 154 0.0 0.0 0.00 0.00 0.00 65 1019.0
20240423003504 49 154 0.0 0.0 0.00 0.00 0.00 65 1018.9
20240423003005 49 182 0.0 0.0 0.00 0.00 0.00 65 1018.8
20240423001503 49 198 0.0 0.0 0.00 0.00 0.00 65 1018.8
20240423001004 50 198 0.0 0.0 0.00 0.00 0.00 64 1018.8
20240423000503 50 197 0.0 0.0 0.00 0.00 0.00 65 1018.7
20240423000004 50 197 0.0 1.0 0.00 0.00 0.00 64 1018.8
20240422235004 51 198 0.0 2.0 0.00 0.00 0.00 63 1018.7
20240422234505 52 147 0.0 2.0 0.00 0.00 0.00 62 1018.7
20240422234004 52 150 0.0 3.0 0.00 0.00 0.00 61 1018.7
20240422233004 54 163 0.0 1.0 0.00 0.00 0.00 58 1018.7
20240422232004 55 118 0.0 1.0 0.00 0.00 0.00 55 1018.7
20240422231504 56 146 0.0 1.0 0.00 0.00 0.00 53 1018.6
20240422231004 56 153 1.0 2.0 0.00 0.00 0.00 48 1018.5
20240422230505 57 57 0.0 0.0 0.00 0.00 0.00 43 1018.4
20240422230003 57 56 0.0 1.0 0.00 0.00 0.00 42 1018.4
20240422225504 57 56 0.0 2.0 0.00 0.00 0.00 42 1018.4
20240422225003 57 30 1.0 3.0 0.00 0.00 0.00 42 1018.3
20240422224505 58 35 0.0 3.0 0.00 0.00 0.00 41 1018.3
20240422224003 58 65 1.0 3.0 0.00 0.00 0.00 41 1018.3
20240422223504 58 10 2.0 5.0 0.00 0.00 0.00 41 1018.2
20240422223004 58 14 1.0 3.0 0.00 0.00 0.00 41 1018.3
20240422222503 58 115 2.0 6.0 0.00 0.00 0.00 41 1018.3
20240422222004 59 69 2.0 3.0 0.00 0.00 0.00 41 1018.2
20240422221004 59 55 2.0 6.0 0.00 0.00 0.00 41 1018.1
20240422220503 59 40 2.0 5.0 0.00 0.00 0.00 40 1018.1
20240422215504 60 42 1.0 5.0 0.00 0.00 0.00 40 1018.0
20240422214504 60 10 2.0 5.0 0.00 0.00 0.00 40 1018.0
20240422214004 60 51 1.0 3.0 0.00 0.00 0.00 41 1018.0
20240422213505 60 86 1.0 6.0 0.00 0.00 0.00 39 1017.9